Time;durP1;ratioP1;P1;durP2;ratioP2;P2;SDS_P1;SDS_P2;PMS_P1;PMS_P2;Temp;Humidity;BMP_temperature;BMP_pressure;BME280_temperature;BME280_humidity;BME280_pressure;Samples;Min_cycle;Max_cycle;Signal;HPM_P1;HPM_P2
2022/08/31 00:14:00;;;;;;;3.50;3.20;;;25.40;48.00;;;;;;5052266;28;20406;-84
2022/08/31 00:16:46;;;;;;;4.37;3.30;;;25.40;48.10;;;;;;5052810;28;20728;-83
2022/08/31 00:29:05;;;;;;;3.77;2.60;;;25.40;48.20;;;;;;5038215;28;20414;-83
2022/08/31 00:35:02;;;;;;;3.30;3.00;;;25.40;48.20;;;;;;5051659;28;20386;-84
2022/08/31 00:37:50;;;;;;;3.77;3.47;;;25.40;48.20;;;;;;5019009;28;20403;-84
2022/08/31 00:40:36;;;;;;;3.53;3.00;;;25.40;48.30;;;;;;5051410;28;20789;-84
2022/08/31 00:43:17;;;;;;;3.80;3.50;;;25.40;48.30;;;;;;5051081;28;20547;-84
2022/08/31 00:49:28;;;;;;;3.40;3.10;;;25.40;48.20;;;;;;5087782;28;20872;-84
2022/08/31 00:52:04;;;;;;;5.33;2.83;;;25.40;48.30;;;;;;5074412;28;20436;-84
2022/08/31 00:54:57;;;;;;;3.80;3.40;;;25.40;48.30;;;;;;5075483;28;20396;-83
2022/08/31 00:57:52;;;;;;;4.47;3.33;;;25.40;48.40;;;;;;5073902;28;20413;-84
2022/08/31 01:00:28;;;;;;;4.07;3.47;;;25.40;48.30;;;;;;5072841;28;20449;-84
2022/08/31 01:02:57;;;;;;;4.37;3.60;;;25.40;48.30;;;;;;5073958;28;20498;-83
2022/08/31 01:05:42;;;;;;;3.80;3.50;;;25.40;48.40;;;;;;5073490;28;20409;-84
2022/08/31 01:08:18;;;;;;;3.70;3.37;;;25.40;48.40;;;;;;5073359;28;20401;-84
2022/08/31 01:10:53;;;;;;;3.70;3.40;;;25.40;48.40;;;;;;5056211;28;20412;-84
2022/08/31 01:13:23;;;;;;;3.70;3.40;;;25.40;48.40;;;;;;5073800;28;20422;-83
2022/08/31 01:15:58;;;;;;;4.40;3.43;;;25.40;48.50;;;;;;5089735;28;20416;-84
2022/08/31 01:18:27;;;;;;;4.23;3.83;;;25.40;48.40;;;;;;5091802;28;20428;-83
2022/08/31 01:21:23;;;;;;;3.60;3.30;;;25.40;48.50;;;;;;5073403;28;20460;-83
2022/08/31 01:23:52;;;;;;;3.70;3.33;;;25.40;48.50;;;;;;4994637;28;20409;-83
2022/08/31 01:26:25;;;;;;;4.13;3.73;;;25.30;48.50;;;;;;5011101;28;20430;-84
2022/08/31 01:32:16;;;;;;;3.87;3.47;;;25.30;48.60;;;;;;4952807;29;20414;-84
2022/08/31 01:34:58;;;;;;;3.60;3.30;;;25.30;48.60;;;;;;4953038;29;20422;-83
2022/08/31 01:37:33;;;;;;;3.97;3.57;;;25.30;48.70;;;;;;4936337;29;20407;-83
2022/08/31 01:40:30;;;;;;;4.70;3.50;;;25.30;48.70;;;;;;4951434;29;20493;-83
2022/08/31 01:42:59;;;;;;;4.40;4.00;;;25.30;48.70;;;;;;4937338;29;20438;-83
2022/08/31 01:45:37;;;;;;;4.23;3.83;;;25.30;48.80;;;;;;4952940;29;20398;-83
2022/08/31 01:48:08;;;;;;;3.90;3.60;;;25.30;48.70;;;;;;4937315;29;20415;-84
2022/08/31 01:50:40;;;;;;;3.83;3.33;;;25.30;48.80;;;;;;4937243;29;20475;-83
2022/08/31 01:53:17;;;;;;;7.13;5.30;;;25.30;48.70;;;;;;4953472;29;20733;-83
2022/08/31 01:55:47;;;;;;;4.43;4.03;;;25.30;48.80;;;;;;4936785;29;20411;-83
2022/08/31 01:58:18;;;;;;;5.10;3.60;;;25.30;48.70;;;;;;4937809;29;20419;-83
2022/08/31 02:00:56;;;;;;;4.90;4.10;;;25.30;48.80;;;;;;4992326;28;20455;-83
2022/08/31 02:03:39;;;;;;;3.97;3.60;;;25.30;48.80;;;;;;5045361;28;20410;-83
2022/08/31 02:06:31;;;;;;;3.90;3.20;;;25.30;48.80;;;;;;5033392;28;20415;-83
2022/08/31 02:09:02;;;;;;;4.53;3.50;;;25.30;48.80;;;;;;5033904;28;20457;-84
2022/08/31 02:11:46;;;;;;;3.50;3.20;;;25.30;48.90;;;;;;5050119;28;20413;-84
2022/08/31 02:14:30;;;;;;;3.97;3.63;;;25.30;49.40;;;;;;5073762;28;20409;-83
2022/08/31 02:17:07;;;;;;;5.60;3.70;;;25.30;48.90;;;;;;5085732;28;20431;-83
2022/08/31 02:19:45;;;;;;;5.13;4.03;;;25.30;48.90;;;;;;5071052;28;20460;-83
2022/08/31 02:22:20;;;;;;;4.30;2.97;;;25.30;49.50;;;;;;5078268;28;20419;-83
2022/08/31 02:24:55;;;;;;;3.57;3.27;;;25.30;49.00;;;;;;5093076;28;20441;-83
2022/08/31 02:27:35;;;;;;;3.30;3.00;;;25.30;49.00;;;;;;5091731;28;20514;-82
2022/08/31 02:33:01;;;;;;;3.83;3.53;;;25.30;49.00;;;;;;5110459;28;20908;-82
2022/08/31 02:35:33;;;;;;;4.20;3.50;;;25.20;49.00;;;;;;5091477;28;20470;-83
2022/08/31 02:38:22;;;;;;;3.77;3.47;;;25.20;49.00;;;;;;5109977;28;20391;-83
2022/08/31 02:40:54;;;;;;;5.40;3.90;;;25.20;48.90;;;;;;5076797;28;20456;-83
2022/08/31 02:43:27;;;;;;;4.90;4.40;;;25.30;49.00;;;;;;5092148;28;20407;-83
2022/08/31 02:46:11;;;;;;;4.47;4.07;;;25.30;49.10;;;;;;5114239;28;20399;-83
2022/08/31 02:48:46;;;;;;;4.10;3.70;;;25.20;49.00;;;;;;5133033;28;20391;-83
2022/08/31 02:51:16;;;;;;;4.27;3.77;;;25.20;49.00;;;;;;5131985;28;20407;-84
2022/08/31 02:53:51;;;;;;;3.60;3.27;;;25.20;49.10;;;;;;5113929;28;20414;-84
2022/08/31 02:56:19;;;;;;;3.90;3.60;;;25.20;49.10;;;;;;5115227;28;20460;-84
2022/08/31 02:58:53;;;;;;;4.37;3.83;;;25.20;49.00;;;;;;5135883;28;20474;-83
2022/08/31 03:01:47;;;;;;;4.87;3.40;;;25.20;49.10;;;;;;5136198;28;20422;-84
2022/08/31 03:04:19;;;;;;;3.67;3.23;;;25.20;49.10;;;;;;5117803;28;20414;-84
2022/08/31 03:06:57;;;;;;;3.80;3.50;;;25.20;49.20;;;;;;5117550;28;20498;-84
2022/08/31 03:09:30;;;;;;;4.30;3.90;;;25.20;49.10;;;;;;5118191;28;20419;-84
2022/08/31 03:19:10;;;;;;;5.43;3.93;;;25.20;49.20;;;;;;5025642;28;20516;-84
2022/08/31 03:21:41;;;;;;;4.00;3.60;;;25.10;49.40;;;;;;4996908;28;20460;-84
2022/08/31 03:24:16;;;;;;;3.70;3.40;;;25.10;49.30;;;;;;4980878;28;20420;-84
2022/08/31 03:26:52;;;;;;;3.93;3.53;;;25.10;49.30;;;;;;4996877;28;20408;-84
2022/08/31 03:29:26;;;;;;;3.93;3.63;;;25.10;49.30;;;;;;5012807;28;20415;-84
2022/08/31 03:32:01;;;;;;;4.57;4.17;;;25.10;49.30;;;;;;5012976;28;20432;-84
2022/08/31 03:34:31;;;;;;;4.00;3.70;;;25.10;49.40;;;;;;5005626;28;20409;-84
2022/08/31 03:37:04;;;;;;;3.80;3.50;;;25.10;49.40;;;;;;5016261;28;20415;-84
2022/08/31 03:39:36;;;;;;;5.53;3.50;;;25.10;49.40;;;;;;5015584;28;20451;-84
2022/08/31 03:42:14;;;;;;;3.73;3.43;;;25.10;49.40;;;;;;5015535;28;20415;-84
2022/08/31 03:44:57;;;;;;;3.80;3.50;;;25.10;49.90;;;;;;5032046;28;20413;-84
2022/08/31 03:47:30;;;;;;;3.93;3.57;;;25.10;49.40;;;;;;5091650;28;20412;-84
2022/08/31 03:50:09;;;;;;;7.47;3.90;;;25.10;49.40;;;;;;5074919;28;20408;-84
2022/08/31 03:53:04;;;;;;;3.80;3.50;;;25.10;49.40;;;;;;5092374;28;20404;-84
2022/08/31 03:56:16;;;;;;;4.57;4.10;;;25.10;49.40;;;;;;5056211;28;20420;-84
2022/08/31 03:58:52;;;;;;;4.77;4.03;;;25.10;49.40;;;;;;5074458;28;20420;-84
2022/08/31 04:01:42;;;;;;;4.43;3.70;;;25.10;49.40;;;;;;5092361;28;20496;-84
2022/08/31 04:04:20;;;;;;;3.67;3.37;;;25.10;49.40;;;;;;5076420;28;20428;-83
2022/08/31 04:06:53;;;;;;;3.87;3.57;;;25.10;49.50;;;;;;5076360;28;20412;-83
2022/08/31 04:09:30;;;;;;;3.70;3.40;;;25.10;49.40;;;;;;5093592;28;20403;-83
2022/08/31 04:12:02;;;;;;;3.90;3.60;;;25.10;49.40;;;;;;5076304;28;20409;-83
2022/08/31 04:14:38;;;;;;;3.70;3.40;;;25.10;49.50;;;;;;5093191;28;20446;-83
2022/08/31 04:17:13;;;;;;;4.20;3.80;;;25.10;49.50;;;;;;5075647;28;20424;-84
2022/08/31 04:20:00;;;;;;;;;;;;;;;;;;;;;
2022/08/31 04:22:34;;;;;;;4.13;3.80;;;25.10;49.50;;;;;;5093722;28;20830;-84
2022/08/31 04:25:18;;;;;;;4.33;3.93;;;25.10;49.50;;;;;;5093468;28;20424;-84
2022/08/31 04:28:02;;;;;;;3.90;3.57;;;25.10;49.50;;;;;;5074860;28;20405;-84
2022/08/31 04:30:34;;;;;;;3.53;3.23;;;25.10;49.50;;;;;;5075235;28;20431;-83
2022/08/31 04:40:16;;;;;;;4.50;4.10;;;25.10;49.50;;;;;;5030925;28;20462;-82
2022/08/31 04:42:48;;;;;;;4.03;3.70;;;25.00;49.60;;;;;;5015305;28;20422;-82
2022/08/31 04:45:25;;;;;;;4.03;3.63;;;25.00;49.50;;;;;;5015575;28;20416;-84
2022/08/31 04:48:08;;;;;;;3.93;3.63;;;25.10;49.60;;;;;;5015154;28;20478;-85
2022/08/31 04:50:40;;;;;;;3.60;3.30;;;25.10;49.60;;;;;;5015185;28;20415;-85
2022/08/31 04:53:17;;;;;;;4.03;3.73;;;25.10;49.60;;;;;;5015113;28;20423;-84
2022/08/31 04:56:01;;;;;;;3.60;3.30;;;25.10;49.60;;;;;;5016274;28;20430;-82
2022/08/31 04:58:40;;;;;;;3.80;3.43;;;25.10;49.60;;;;;;5017484;28;20496;-83
2022/08/31 05:01:45;;;;;;;4.20;3.90;;;25.10;49.50;;;;;;5031211;28;20429;-83
2022/08/31 05:04:28;;;;;;;;;;;;;;;;;;;;;
2022/08/31 05:07:18;;;;;;;3.50;3.20;;;25.10;49.50;;;;;;5016285;28;20458;-82
2022/08/31 05:09:57;;;;;;;3.97;3.67;;;25.10;49.50;;;;;;5031290;28;20419;-83
2022/08/31 05:12:34;;;;;;;;;;;;;;;;;;;;;
2022/08/31 05:15:13;;;;;;;4.50;3.77;;;25.10;49.50;;;;;;5092176;28;20420;-83
2022/08/31 05:17:51;;;;;;;4.00;3.70;;;25.10;49.50;;;;;;5070468;28;20424;-84
2022/08/31 05:20:22;;;;;;;4.17;3.60;;;25.10;49.50;;;;;;5068311;28;20460;-83
2022/08/31 05:23:04;;;;;;;6.93;4.27;;;25.10;49.50;;;;;;5068636;28;20420;-83
2022/08/31 05:31:57;;;;;;;3.80;3.50;;;25.10;49.50;;;;;;5086353;28;20453;-83
2022/08/31 05:34:31;;;;;;;4.43;3.77;;;25.10;49.50;;;;;;5086690;28;20416;-83
2022/08/31 05:37:18;;;;;;;3.80;3.50;;;25.10;49.50;;;;;;5068637;28;20454;-84
2022/08/31 05:39:55;;;;;;;4.50;3.70;;;25.10;49.50;;;;;;5068951;28;20528;-84
2022/08/31 05:43:05;;;;;;;3.90;3.50;;;25.10;49.60;;;;;;5068633;28;20412;-84
2022/08/31 05:45:46;;;;;;;4.70;4.30;;;25.10;49.60;;;;;;5085805;28;20404;-84
2022/08/31 05:48:44;;;;;;;5.07;4.63;;;25.10;49.60;;;;;;5054688;28;20409;-84
2022/08/31 05:51:33;;;;;;;4.13;3.83;;;25.10;49.60;;;;;;5069376;28;20413;-84
2022/08/31 05:54:24;;;;;;;3.80;3.40;;;25.10;49.60;;;;;;5025561;28;20411;-85
2022/08/31 05:57:15;;;;;;;;;;;;;;;;;;;;;
2022/08/31 05:59:56;;;;;;;4.03;3.73;;;25.10;49.70;;;;;;5087624;28;20523;-85
2022/08/31 06:05:19;;;;;;;3.57;3.27;;;25.10;49.70;;;;;;5088246;28;20709;-85
2022/08/31 06:15:03;;;;;;;5.07;4.13;;;25.10;49.80;;;;;;5054754;28;20451;-85
2022/08/31 06:17:50;;;;;;;3.97;3.67;;;25.10;49.80;;;;;;5057404;28;20425;-84
2022/08/31 06:20:45;;;;;;;4.70;4.10;;;25.10;49.80;;;;;;5068209;28;20471;-84
2022/08/31 06:23:21;;;;;;;4.53;4.13;;;25.10;49.80;;;;;;5068296;28;20413;-84
2022/08/31 06:25:47;;;;;;;4.50;4.10;;;25.10;49.80;;;;;;5068794;28;20438;-84
2022/08/31 06:28:18;;;;;;;3.97;3.67;;;25.10;49.80;;;;;;5071606;28;20570;-84
2022/08/31 06:31:11;;;;;;;4.27;3.80;;;25.10;49.70;;;;;;5088488;28;20404;-84
2022/08/31 06:33:48;;;;;;;4.73;4.33;;;25.10;49.80;;;;;;5088550;28;20411;-84
2022/08/31 06:36:33;;;;;;;3.73;3.43;;;25.10;49.70;;;;;;5088606;28;20437;-84
2022/08/31 06:52:12;;;;;;;4.50;4.10;;;25.00;49.80;;;;;;4946718;28;20383;-83
2022/08/31 06:54:42;;;;;;;4.67;4.27;;;25.00;49.80;;;;;;4931350;29;20514;-83
2022/08/31 06:57:10;;;;;;;5.40;4.43;;;25.00;49.80;;;;;;4916199;29;20495;-83
2022/08/31 06:59:52;;;;;;;4.93;4.43;;;25.00;49.90;;;;;;4930100;29;20461;-82
2022/08/31 07:05:28;;;;;;;4.23;3.70;;;25.00;49.90;;;;;;4899482;29;20410;-82
2022/08/31 07:08:04;;;;;;;4.00;3.60;;;25.00;49.90;;;;;;4946192;29;20503;-82
2022/08/31 07:10:41;;;;;;;4.10;3.53;;;25.00;50.00;;;;;;4930312;29;20425;-83
2022/08/31 07:13:22;;;;;;;5.07;3.50;;;25.00;49.90;;;;;;4960739;28;20428;-82
2022/08/31 07:16:13;;;;;;;3.93;3.50;;;25.00;49.90;;;;;;4969856;28;20425;-83
2022/08/31 07:22:11;;;;;;;6.33;3.60;;;25.00;50.00;;;;;;4946317;29;20493;-83
2022/08/31 07:24:56;;;;;;;4.00;3.60;;;25.00;50.00;;;;;;4962035;28;20546;-85
2022/08/31 07:30:55;;;;;;;3.57;3.17;;;25.00;50.00;;;;;;5024848;28;20749;-83
2022/08/31 07:34:11;;;;;;;4.13;3.77;;;24.90;50.00;;;;;;5008614;28;20553;-84
2022/08/31 07:56:45;;;;;;;3.97;3.47;;;24.90;50.20;;;;;;5009156;28;20401;-84
2022/08/31 08:06:30;;;;;;;5.13;3.70;;;24.90;50.20;;;;;;5028408;28;20383;-85
2022/08/31 10:25:41;;;;;;;;;;;;;;;;;;;;;
2022/08/31 12:34:11;;;;;;;4.33;3.93;;;25.10;49.20;;;;;;4878092;29;20452;-88
2022/08/31 12:40:54;;;;;;;4.00;3.60;;;25.10;49.30;;;;;;4880515;29;20469;-88
2022/08/31 12:47:38;;;;;;;;;;;;;;;;;;;;;
2022/08/31 13:05:04;;;;;;;4.13;3.73;;;25.10;49.30;;;;;;4758264;29;20451;-87
2022/08/31 13:21:25;;;;;;;4.50;4.10;;;25.10;49.40;;;;;;4830596;29;20525;-87
2022/08/31 13:30:52;;;;;;;;;;;;;;;;;;;;;
2022/08/31 13:33:48;;;;;;;;;;;;;;;;;;;;;
2022/08/31 13:37:03;;;;;;;3.60;3.30;;;25.20;49.50;;;;;;4818130;29;20493;-88
2022/08/31 14:00:22;;;;;;;4.37;3.80;;;25.20;49.50;;;;;;4874595;29;20453;-88
2022/08/31 14:03:56;;;;;;;3.30;2.90;;;25.20;49.50;;;;;;4910822;28;20580;-88
2022/08/31 14:13:25;;;;;;;3.93;2.90;;;25.30;49.50;;;;;;4985883;28;20404;-87
2022/08/31 14:16:38;;;;;;;2.73;2.47;;;25.30;49.40;;;;;;4968626;28;20406;-87
2022/08/31 14:19:28;;;;;;;3.10;2.90;;;25.30;49.40;;;;;;4987111;28;20428;-87
2022/08/31 14:50:25;;;;;;;;;;;;;;;;;;;;;
2022/08/31 14:59:56;;;;;;;2.97;2.67;;;25.20;49.30;;;;;;4731949;30;20552;-88
2022/08/31 15:06:29;;;;;;;;;;;;;;;;;;;;;
2022/08/31 15:12:47;;;;;;;2.70;2.50;;;25.20;49.30;;;;;;4798776;30;20401;-87
2022/08/31 15:25:45;;;;;;;;;;;;;;;;;;;;;
2022/08/31 15:35:08;;;;;;;2.73;2.47;;;25.10;49.30;;;;;;4856847;29;20390;-83
2022/08/31 15:37:38;;;;;;;2.80;2.60;;;25.10;49.30;;;;;;4841460;29;20431;-82
2022/08/31 15:40:08;;;;;;;3.13;2.37;;;25.10;49.30;;;;;;4841617;29;20455;-82
2022/08/31 15:42:50;;;;;;;2.70;2.50;;;25.10;49.80;;;;;;4841647;29;20426;-82
2022/08/31 15:45:24;;;;;;;2.40;2.20;;;25.10;49.20;;;;;;4841467;29;20430;-82
2022/08/31 15:51:00;;;;;;;2.80;2.50;;;25.10;49.30;;;;;;4857283;29;20457;-80
2022/08/31 15:53:34;;;;;;;3.70;2.43;;;25.10;49.20;;;;;;4845362;29;20425;-82
2022/08/31 15:56:08;;;;;;;2.67;2.43;;;25.10;49.20;;;;;;4894817;29;20771;-81
2022/08/31 15:58:40;;;;;;;3.70;2.77;;;25.10;49.20;;;;;;4888757;29;20436;-81
2022/08/31 16:01:32;;;;;;;3.60;2.30;;;25.10;49.20;;;;;;4915360;29;20462;-82
2022/08/31 16:04:14;;;;;;;3.30;2.60;;;25.20;49.30;;;;;;4956541;29;20407;-82
2022/08/31 16:06:49;;;;;;;2.83;2.40;;;25.10;49.20;;;;;;4941609;29;20445;-82
2022/08/31 16:09:43;;;;;;;2.50;2.30;;;25.10;49.20;;;;;;4941193;29;20430;-81
2022/08/31 16:18:33;;;;;;;2.77;2.57;;;25.10;49.30;;;;;;4918728;29;20465;-82
2022/08/31 16:21:12;;;;;;;3.17;2.70;;;25.10;49.30;;;;;;4903101;29;20461;-81
2022/08/31 16:24:02;;;;;;;2.47;2.27;;;25.10;49.30;;;;;;4918580;29;20431;-82
2022/08/31 16:26:46;;;;;;;3.33;2.87;;;25.10;49.30;;;;;;4903312;29;20424;-82
2022/08/31 16:29:28;;;;;;;2.80;2.60;;;25.10;49.30;;;;;;4918890;29;20472;-82
2022/08/31 16:32:02;;;;;;;2.50;2.30;;;25.10;49.40;;;;;;4902739;29;20448;-81
2022/08/31 16:34:37;;;;;;;2.63;2.43;;;25.10;49.40;;;;;;4901571;29;20417;-81
2022/08/31 16:37:13;;;;;;;3.30;2.73;;;25.10;49.40;;;;;;4918689;29;20405;-81
2022/08/31 16:40:05;;;;;;;2.70;2.50;;;25.00;49.30;;;;;;4887269;29;20471;-81
2022/08/31 16:42:41;;;;;;;2.40;2.20;;;25.10;49.40;;;;;;4901702;29;20421;-81
2022/08/31 16:45:11;;;;;;;3.10;2.63;;;25.00;49.30;;;;;;4928121;29;20410;-81
2022/08/31 16:49:32;;;;;;;2.43;2.23;;;25.00;49.40;;;;;;4941564;29;20430;-80
2022/08/31 16:50:55;;;;;;;2.17;2.00;;;25.00;49.40;;;;;;4951862;29;20411;-80
2022/08/31 16:53:25;;;;;;;2.53;2.20;;;25.00;49.40;;;;;;4936139;29;20454;-81
2022/08/31 16:55:52;;;;;;;3.60;2.30;;;25.00;49.40;;;;;;4933332;29;20411;-81
2022/08/31 16:58:23;;;;;;;2.20;2.00;;;25.00;49.40;;;;;;4932760;29;20515;-82
2022/08/31 17:00:54;;;;;;;2.57;2.37;;;25.00;49.40;;;;;;5024538;28;20892;-82
2022/08/31 17:03:21;;;;;;;2.70;2.50;;;25.00;49.40;;;;;;5035859;28;20415;-82
2022/08/31 17:05:57;;;;;;;2.33;1.93;;;25.00;49.40;;;;;;5029922;28;20410;-82
2022/08/31 17:08:52;;;;;;;2.83;2.43;;;25.00;49.40;;;;;;5029498;28;20414;-81
2022/08/31 17:11:30;;;;;;;2.47;2.27;;;25.00;49.40;;;;;;5026652;28;20514;-82
2022/08/31 17:14:07;;;;;;;2.57;2.37;;;25.00;49.40;;;;;;5029580;28;20418;-82
2022/08/31 17:20:01;;;;;;;2.33;2.13;;;25.00;49.50;;;;;;4986077;28;20456;-81
2022/08/31 17:22:28;;;;;;;3.87;2.17;;;25.00;49.50;;;;;;4919329;29;20471;-80
2022/08/31 17:25:16;;;;;;;2.70;2.30;;;25.00;49.50;;;;;;4955955;29;20414;-81
2022/08/31 17:28:04;;;;;;;2.43;2.10;;;25.00;49.50;;;;;;4952585;28;20449;-81
2022/08/31 17:31:09;;;;;;;;;;;;;;;;;;;;;
2022/08/31 17:37:31;;;;;;;3.27;2.30;;;24.90;49.50;;;;;;4950982;28;20398;-82
2022/08/31 17:40:17;;;;;;;4.73;2.20;;;24.90;50.10;;;;;;4963309;29;20449;-82
2022/08/31 17:42:59;;;;;;;3.17;2.60;;;24.90;49.50;;;;;;4944050;29;20426;-82
2022/08/31 17:45:28;;;;;;;3.00;1.97;;;24.90;49.50;;;;;;4968243;29;20442;-82
2022/08/31 17:48:00;;;;;;;2.40;2.20;;;24.90;49.50;;;;;;4944265;29;20421;-82
2022/08/31 17:50:35;;;;;;;2.57;2.37;;;24.90;49.60;;;;;;4951928;29;20561;-82
2022/08/31 17:53:04;;;;;;;2.67;2.30;;;24.90;49.50;;;;;;4986341;28;20407;-83
2022/08/31 18:02:13;;;;;;;2.33;2.13;;;24.90;49.60;;;;;;5028283;28;20407;-83
2022/08/31 18:05:21;;;;;;;;;;;;;;;;;;;;;
2022/08/31 18:11:16;;;;;;;2.60;2.10;;;24.90;49.60;;;;;;4948335;29;20367;-82
2022/08/31 18:14:49;;;;;;;2.57;2.37;;;24.80;49.60;;;;;;4932328;29;20407;-81
2022/08/31 18:17:42;;;;;;;2.47;2.27;;;24.90;49.60;;;;;;4855060;29;20423;-81
2022/08/31 18:20:33;;;;;;;;;;;;;;;;;;;;;
2022/08/31 18:23:31;;;;;;;2.93;2.63;;;24.80;49.60;;;;;;4904031;29;20983;-81
2022/08/31 18:33:29;;;;;;;;;;;;;;;;;;;;;
2022/08/31 18:46:06;;;;;;;1.73;1.53;;;24.80;49.70;;;;;;4782498;30;20422;-82
2022/08/31 18:55:46;;;;;;;2.97;2.10;;;24.80;49.60;;;;;;4769851;29;20411;-82
2022/08/31 19:01:19;;;;;;;3.63;2.20;;;24.80;49.70;;;;;;4836263;29;20448;-82
2022/08/31 19:04:19;;;;;;;1.90;1.80;;;24.80;49.70;;;;;;4836704;29;20431;-82
2022/08/31 19:07:05;;;;;;;2.27;1.90;;;24.80;49.60;;;;;;4929688;29;20414;-82
2022/08/31 19:09:38;;;;;;;5.87;2.23;;;24.80;49.60;;;;;;4969132;29;20414;-82
2022/08/31 19:22:37;;;;;;;2.80;2.10;;;24.80;49.60;;;;;;4948058;29;20399;-82
2022/08/31 19:25:07;;;;;;;2.27;1.90;;;24.80;49.60;;;;;;4932577;29;20420;-82
2022/08/31 19:27:49;;;;;;;2.10;1.90;;;24.80;49.60;;;;;;4931601;29;20415;-81
2022/08/31 19:30:19;;;;;;;2.30;2.10;;;24.90;49.70;;;;;;4947244;29;20446;-82
2022/08/31 19:32:47;;;;;;;2.20;1.90;;;24.90;49.70;;;;;;4931807;29;20433;-82
2022/08/31 19:35:14;;;;;;;2.33;2.00;;;24.90;49.70;;;;;;4931657;29;20443;-81
2022/08/31 19:37:41;;;;;;;2.30;2.10;;;24.90;49.60;;;;;;4931634;29;20419;-82
2022/08/31 19:40:15;;;;;;;2.80;2.47;;;24.90;49.60;;;;;;4950064;29;20458;-83
2022/08/31 19:42:44;;;;;;;2.77;2.43;;;24.90;49.60;;;;;;4935176;29;20410;-83
2022/08/31 19:45:15;;;;;;;2.40;2.20;;;24.90;49.60;;;;;;4950968;29;20434;-81
2022/08/31 19:47:44;;;;;;;2.23;1.73;;;24.90;49.60;;;;;;4951000;29;20395;-81
2022/08/31 19:50:17;;;;;;;2.53;2.20;;;24.90;49.50;;;;;;4935129;29;20427;-82
2022/08/31 19:55:56;;;;;;;2.50;2.30;;;24.90;49.50;;;;;;5030821;28;20383;-82
2022/08/31 19:58:35;;;;;;;;;;;;;;;;;;;;;
2022/08/31 20:01:22;;;;;;;2.83;2.50;;;24.90;50.00;;;;;;5014769;28;20533;-81
2022/08/31 20:04:09;;;;;;;2.07;1.87;;;24.90;49.40;;;;;;5012422;28;20447;-82
2022/08/31 20:33:17;;;;;;;2.53;2.30;;;24.90;49.60;;;;;;4892658;29;20417;-82
2022/08/31 20:42:36;;;;;;;2.23;1.97;;;24.80;49.60;;;;;;4911802;29;20440;-82
2022/08/31 20:45:31;;;;;;;;;;;;;;;;;;;;;
2022/08/31 20:51:15;;;;;;;2.30;2.10;;;24.80;49.60;;;;;;4892354;29;20533;-83
2022/08/31 20:54:55;;;;;;;2.67;2.47;;;24.80;49.60;;;;;;4905901;29;20444;-84
2022/08/31 20:58:16;;;;;;;2.23;2.03;;;24.80;49.60;;;;;;4835653;29;20526;-84
2022/08/31 21:01:07;;;;;;;2.23;2.00;;;24.80;49.60;;;;;;4839517;29;20842;-83
2022/08/31 21:03:38;;;;;;;2.37;2.17;;;24.80;49.70;;;;;;4874344;29;20426;-83
2022/08/31 21:06:24;;;;;;;2.60;2.40;;;24.80;49.80;;;;;;4874718;29;20430;-83
2022/08/31 21:09:14;;;;;;;2.63;2.43;;;24.80;49.70;;;;;;4924154;29;20466;-83
2022/08/31 21:12:22;;;;;;;2.27;2.07;;;24.80;49.70;;;;;;4953071;29;20437;-82
2022/08/31 21:14:58;;;;;;;2.53;2.03;;;24.80;49.70;;;;;;4946253;29;20430;-82
2022/08/31 21:17:58;;;;;;;2.37;2.17;;;24.80;49.70;;;;;;4964623;29;20426;-82
2022/08/31 21:20:28;;;;;;;3.40;2.13;;;24.80;49.70;;;;;;4937676;29;20495;-83
2022/08/31 21:23:12;;;;;;;2.30;2.10;;;24.80;49.70;;;;;;4915767;29;20434;-82
2022/08/31 21:25:53;;;;;;;2.20;2.00;;;24.80;49.70;;;;;;4918920;29;20463;-82
2022/08/31 21:28:29;;;;;;;2.03;1.83;;;24.80;49.70;;;;;;4939802;29;20430;-82
2022/08/31 21:31:08;;;;;;;2.57;2.20;;;24.80;49.70;;;;;;4967040;28;20525;-83
2022/08/31 21:33:35;;;;;;;2.70;2.50;;;24.80;49.70;;;;;;4966780;29;20413;-83
2022/08/31 21:36:15;;;;;;;2.40;2.00;;;24.80;49.70;;;;;;4968883;29;20422;-82
2022/08/31 21:38:46;;;;;;;3.37;2.13;;;24.80;49.70;;;;;;4952680;29;20482;-83
2022/08/31 21:41:22;;;;;;;2.60;2.40;;;24.80;49.60;;;;;;4953251;29;20476;-83
2022/08/31 21:44:19;;;;;;;1.73;1.63;;;24.80;49.60;;;;;;4961079;29;20437;-82
2022/08/31 21:46:49;;;;;;;1.93;1.83;;;24.90;49.70;;;;;;4967622;29;20426;-84
2022/08/31 21:49:48;;;;;;;;;;;;;;;;;;;;;
2022/08/31 21:52:18;;;;;;;2.77;2.20;;;24.90;49.70;;;;;;4962586;29;20418;-83
2022/08/31 21:54:46;;;;;;;3.30;1.93;;;24.90;49.70;;;;;;4950145;28;20429;-83
2022/08/31 21:57:35;;;;;;;2.67;2.23;;;24.90;49.70;;;;;;5002361;28;20415;-83
2022/08/31 22:00:28;;;;;;;2.53;2.33;;;24.90;49.70;;;;;;5025406;28;20469;-83
2022/08/31 22:03:04;;;;;;;2.83;2.10;;;24.90;49.70;;;;;;5020858;28;20446;-83
2022/08/31 22:05:58;;;;;;;2.20;2.00;;;24.90;49.70;;;;;;5028569;28;20493;-83
2022/08/31 22:08:30;;;;;;;2.47;1.93;;;24.90;49.80;;;;;;4934614;29;20465;-83
2022/08/31 22:11:33;;;;;;;;;;;;;;;;;;;;;
2022/08/31 22:14:16;;;;;;;2.07;1.87;;;24.90;49.70;;;;;;5028043;28;20486;-83
2022/08/31 22:17:06;;;;;;;1.83;1.73;;;24.90;49.70;;;;;;5010789;28;20446;-83
2022/08/31 22:22:31;;;;;;;3.53;2.10;;;24.90;49.70;;;;;;5028053;28;20415;-83
2022/08/31 22:29:10;;;;;;;2.50;2.30;;;24.90;49.70;;;;;;4987523;28;20404;-84
2022/08/31 22:32:03;;;;;;;2.67;2.20;;;24.90;49.70;;;;;;4949436;28;20417;-83
2022/08/31 22:48:22;;;;;;;1.87;1.77;;;24.80;49.70;;;;;;4927066;29;20451;-83
2022/08/31 22:51:04;;;;;;;;;;;;;;;;;;;;;
2022/08/31 22:54:04;;;;;;;2.40;2.23;;;24.80;49.70;;;;;;4929295;29;20468;-82
2022/08/31 23:03:22;;;;;;;2.00;1.80;;;24.80;49.60;;;;;;5015278;28;20455;-83
2022/08/31 23:06:05;;;;;;;1.97;1.87;;;24.80;49.70;;;;;;5009939;28;20431;-84
2022/08/31 23:08:42;;;;;;;2.37;2.10;;;24.80;49.70;;;;;;5027097;28;20404;-84
2022/08/31 23:24:34;;;;;;;2.30;2.10;;;24.80;49.60;;;;;;4913626;29;21091;-84
2022/08/31 23:27:27;;;;;;;;;;;;;;;;;;;;;
2022/08/31 23:29:57;;;;;;;2.33;2.10;;;24.80;49.60;;;;;;4875656;29;20513;-84
2022/08/31 23:32:32;;;;;;;3.00;2.03;;;24.80;49.60;;;;;;4860362;29;20430;-84
2022/08/31 23:35:36;;;;;;;;;;;;;;;;;;;;;
2022/08/31 23:38:06;;;;;;;2.20;2.00;;;24.90;49.60;;;;;;4876114;29;20516;-84
